createdAt,value
2019-02-07T11:44:06.579Z,1752.00
2019-02-07T11:45:06.571Z,1752.00
2019-02-07T11:46:06.561Z,1748.00
2019-02-07T11:47:06.990Z,1708.00
2019-02-07T11:48:06.554Z,1704.00
2019-02-07T11:49:07.267Z,1708.00
2019-02-07T11:50:06.510Z,1700.00
2019-02-07T11:51:06.516Z,1676.00
2019-02-07T11:52:06.499Z,1692.00
2019-02-07T11:53:06.513Z,1668.00
2019-02-07T11:54:06.470Z,1644.00
2019-02-07T11:55:06.487Z,1664.00
2019-02-07T11:56:06.460Z,1704.00
2019-02-07T11:57:06.441Z,1732.00
2019-02-07T11:58:07.428Z,1724.00
2019-02-07T11:59:06.429Z,1716.00
2019-02-07T12:00:06.449Z,1692.00
2019-02-07T12:01:06.393Z,1692.00
2019-02-07T12:02:09.252Z,1696.00
2019-02-07T12:03:06.435Z,1720.00
2019-02-07T12:04:06.378Z,1712.00
2019-02-07T12:05:06.351Z,1688.00
2019-02-07T12:06:08.644Z,1708.00
2019-02-07T12:07:06.323Z,1704.00
2019-02-07T12:08:06.322Z,1692.00
2019-02-07T12:09:06.507Z,1688.00
2019-02-07T12:10:06.299Z,1676.00
2019-02-07T12:11:06.287Z,1668.00
2019-02-07T12:12:06.282Z,1664.00
2019-02-07T12:13:06.260Z,1668.00
2019-02-07T12:14:06.342Z,1676.00
2019-02-07T12:15:06.250Z,1692.00
2019-02-07T12:16:06.241Z,1696.00
2019-02-07T12:17:06.227Z,1708.00
2019-02-07T12:18:06.255Z,1684.00
2019-02-07T12:19:06.227Z,1660.00
2019-02-07T12:20:06.188Z,1644.00
2019-02-07T12:21:06.175Z,1628.00
2019-02-07T12:22:06.179Z,1636.00
2019-02-07T12:23:06.708Z,1644.00
2019-02-07T12:24:06.363Z,1644.00
2019-02-07T12:25:06.136Z,1616.00
2019-02-07T12:26:06.138Z,1580.00
2019-02-07T12:27:06.116Z,1560.00
2019-02-07T12:28:06.106Z,1520.00
2019-02-07T12:29:06.126Z,1500.00
2019-02-07T12:30:06.181Z,1436.00
2019-02-07T12:31:06.069Z,1448.00
2019-02-07T12:32:06.076Z,1464.00
2019-02-07T12:33:06.056Z,1544.00
2019-02-07T12:34:06.052Z,1584.00
2019-02-07T12:35:06.047Z,1612.00
2019-02-07T12:36:06.032Z,1732.00
2019-02-07T12:37:06.002Z,1676.00
2019-02-07T12:38:06.001Z,1648.00
2019-02-07T12:39:05.995Z,1600.00
2019-02-07T12:40:05.982Z,1596.00
2019-02-07T12:41:05.972Z,1576.00
2019-02-07T12:42:05.963Z,1556.00
2019-02-07T12:43:06.037Z,1516.00
2019-02-07T12:44:05.946Z,1472.00
2019-02-07T12:45:05.929Z,1468.00
2019-02-07T12:46:05.911Z,1436.00
2019-02-07T12:47:08.365Z,1412.00
2019-02-07T12:48:06.913Z,1372.00
2019-02-07T12:49:05.900Z,1316.00
2019-02-07T12:50:05.874Z,1352.00
2019-02-07T12:51:05.854Z,1404.00
2019-02-07T12:52:05.863Z,1404.00
2019-02-07T12:53:05.840Z,1412.00
2019-02-07T12:54:05.826Z,1360.00
2019-02-07T12:55:05.810Z,1372.00
2019-02-07T12:56:05.827Z,1352.00
2019-02-07T12:57:05.802Z,1344.00
2019-02-07T12:58:05.787Z,1320.00
2019-02-07T12:59:05.863Z,1296.00
2019-02-07T13:00:05.758Z,1284.00
2019-02-07T13:01:05.964Z,1280.00
2019-02-07T13:02:05.735Z,1284.00
2019-02-07T13:03:05.730Z,1288.00
2019-02-07T13:04:05.714Z,1288.00
2019-02-07T13:05:05.750Z,1288.00
2019-02-07T13:06:07.184Z,1268.00
2019-02-07T13:07:06.931Z,1268.00
2019-02-07T13:08:05.706Z,1256.00
2019-02-07T13:09:05.747Z,1196.00
2019-02-07T13:10:05.645Z,1160.00
2019-02-07T13:11:05.640Z,1132.00
2019-02-07T13:12:05.673Z,1144.00
2019-02-07T13:13:05.613Z,1120.00
2019-02-07T13:14:05.606Z,1124.00
2019-02-07T13:15:05.622Z,1148.00
2019-02-07T13:16:06.615Z,1168.00
2019-02-07T13:17:05.617Z,1172.00
2019-02-07T13:18:05.626Z,1180.00
2019-02-07T13:19:05.639Z,1164.00
2019-02-07T13:20:05.589Z,1176.00
2019-02-07T13:21:05.520Z,1208.00
2019-02-07T13:22:05.545Z,1220.00
2019-02-07T13:23:05.549Z,1224.00
2019-02-07T13:24:05.517Z,1232.00
2019-02-07T13:25:05.616Z,1188.00
2019-02-07T13:26:05.521Z,1152.00
2019-02-07T13:27:05.488Z,1128.00
2019-02-07T13:28:05.448Z,1104.00
2019-02-07T13:29:05.432Z,1100.00
2019-02-07T13:30:05.441Z,1100.00
2019-02-07T13:31:05.574Z,1100.00
2019-02-07T13:32:05.550Z,1108.00
2019-02-07T13:33:05.386Z,1100.00
2019-02-07T13:34:05.446Z,1132.00
2019-02-07T13:35:05.384Z,1140.00
2019-02-07T13:36:05.757Z,1156.00
2019-02-07T13:37:05.427Z,1176.00
2019-02-07T13:38:05.332Z,1188.00
2019-02-07T13:39:05.317Z,1200.00
2019-02-07T13:40:05.327Z,1212.00
2019-02-07T13:41:06.848Z,1236.00
2019-02-07T13:42:05.284Z,1240.00
2019-02-07T13:43:05.271Z,1220.00
2019-02-07T13:44:05.273Z,1200.00
2019-02-07T13:45:05.460Z,1176.00
2019-02-07T13:46:05.444Z,1156.00
2019-02-07T14:01:25.668Z,1052.00
2019-02-07T14:02:25.634Z,1052.00
2019-02-07T14:03:25.643Z,1056.00
2019-02-07T14:04:25.612Z,1064.00
2019-02-07T14:05:25.615Z,1088.00
2019-02-07T14:06:25.599Z,1072.00
2019-02-07T14:07:25.637Z,1016.00
2019-02-07T14:08:25.614Z,960.00
2019-02-07T14:09:25.551Z,1092.00
2019-02-07T14:10:25.535Z,1360.00
2019-02-07T14:11:25.516Z,1176.00
2019-02-07T14:12:25.524Z,1084.00
2019-02-07T14:13:25.558Z,1024.00
2019-02-07T14:14:25.526Z,1064.00
2019-02-07T14:15:25.484Z,1080.00
2019-02-07T14:16:25.466Z,1072.00
2019-02-07T14:17:25.636Z,1092.00
2019-02-07T14:18:25.461Z,1192.00
2019-02-07T14:19:25.451Z,1236.00
2019-02-07T14:20:25.431Z,1248.00
2019-02-07T14:21:25.417Z,1132.00
2019-02-07T14:22:25.404Z,1192.00
2019-02-07T14:23:25.406Z,1092.00
2019-02-07T14:24:25.397Z,948.00
2019-02-07T14:25:25.377Z,980.00
2019-02-07T14:26:25.359Z,1016.00
2019-02-07T14:27:25.349Z,1000.00
2019-02-07T14:28:25.360Z,1156.00
2019-02-07T14:29:25.332Z,1124.00
2019-02-07T14:30:25.322Z,1064.00
2019-02-07T14:31:25.328Z,1128.00
2019-02-07T14:32:25.294Z,1024.00
2019-02-07T14:33:25.299Z,908.00
2019-02-07T14:34:25.270Z,860.00
2019-02-07T14:35:25.271Z,912.00
2019-02-07T14:36:25.267Z,840.00
2019-02-07T14:37:25.259Z,800.00
2019-02-07T14:38:25.243Z,788.00
2019-02-07T14:39:25.224Z,852.00
2019-02-07T14:40:25.219Z,720.00
2019-02-07T14:41:25.209Z,696.00
2019-02-07T14:42:25.189Z,716.00
2019-02-07T14:43:25.191Z,736.00
2019-02-07T14:44:25.289Z,816.00
2019-02-07T14:45:25.233Z,768.00
2019-02-07T14:46:25.188Z,672.00
2019-02-07T14:47:25.227Z,764.00
2019-02-07T14:48:27.950Z,720.00
2019-02-07T14:49:25.126Z,628.00
2019-02-07T14:50:25.096Z,588.00
2019-02-07T14:51:25.109Z,636.00
2019-02-07T14:52:25.088Z,624.00
2019-02-07T14:53:25.094Z,664.00
2019-02-07T14:54:25.060Z,716.00
2019-02-07T14:55:25.046Z,696.00
2019-02-07T14:56:25.037Z,732.00
2019-02-07T14:57:25.028Z,712.00
2019-02-07T14:58:25.021Z,620.00
2019-02-07T14:59:25.015Z,632.00
2019-02-07T15:00:25.348Z,700.00
2019-02-07T15:01:24.991Z,688.00
2019-02-07T15:02:24.972Z,620.00
2019-02-07T15:03:24.972Z,580.00
2019-02-07T15:04:25.002Z,580.00
2019-02-07T15:05:24.987Z,564.00
2019-02-07T15:06:24.990Z,544.00
2019-02-07T15:07:24.964Z,496.00
2019-02-07T15:08:24.923Z,468.00
2019-02-07T15:09:24.940Z,460.00
2019-02-07T15:10:24.881Z,444.00
2019-02-07T15:11:24.885Z,540.00
2019-02-07T15:12:24.882Z,420.00
2019-02-07T15:13:24.852Z,416.00
2019-02-07T15:14:25.055Z,412.00
2019-02-07T15:15:24.825Z,396.00
2019-02-07T15:16:24.875Z,416.00
2019-02-07T15:17:24.871Z,404.00
2019-02-07T15:18:25.012Z,356.00
2019-02-07T15:19:24.796Z,340.00
2019-02-07T15:20:26.424Z,324.00
2019-02-07T15:21:24.790Z,240.00
2019-02-07T15:22:24.920Z,192.00
2019-02-07T15:23:24.983Z,172.00
2019-02-07T15:24:24.733Z,200.00
2019-02-07T15:25:24.726Z,204.00
2019-02-07T15:26:24.952Z,168.00
2019-02-07T15:27:24.700Z,152.00
2019-02-07T15:28:24.709Z,180.00
2019-02-07T15:29:24.812Z,184.00
2019-02-07T15:30:24.665Z,160.00
2019-02-07T15:31:24.872Z,164.00
2019-02-07T15:32:24.664Z,144.00
2019-02-07T15:33:24.747Z,136.00
2019-02-07T15:34:24.668Z,164.00
2019-02-07T15:35:24.618Z,152.00
2019-02-07T15:36:24.621Z,132.00
2019-02-07T15:37:24.627Z,132.00
2019-02-07T15:38:24.632Z,256.00
2019-02-07T15:39:24.755Z,340.00
2019-02-07T15:40:25.559Z,384.00
2019-02-07T15:41:24.752Z,392.00
2019-02-07T15:42:24.562Z,400.00
2019-02-07T15:43:24.526Z,400.00
2019-02-07T15:44:24.617Z,388.00
2019-02-07T15:45:24.500Z,384.00
2019-02-07T15:46:24.494Z,380.00
2019-02-07T15:47:24.481Z,380.00
2019-02-07T15:48:24.518Z,392.00
2019-02-07T15:49:24.539Z,412.00
2019-02-07T15:50:24.660Z,420.00
2019-02-07T15:51:24.600Z,172.00
2019-02-07T15:52:24.440Z,164.00
2019-02-07T15:53:24.424Z,156.00
2019-02-07T15:54:24.414Z,148.00
2019-02-07T15:55:24.597Z,144.00
2019-02-07T15:56:24.603Z,144.00
2019-02-07T15:57:24.367Z,152.00
2019-02-07T15:58:24.356Z,156.00
2019-02-07T15:59:24.391Z,160.00
2019-02-07T16:00:24.349Z,156.00
2019-02-07T16:01:24.562Z,140.00
2019-02-07T16:02:24.319Z,132.00
2019-02-07T16:03:24.321Z,120.00
2019-02-07T16:04:24.497Z,108.00
2019-02-07T16:05:24.488Z,108.00
2019-02-07T16:06:24.524Z,112.00
2019-02-07T16:07:24.295Z,136.00
2019-02-07T16:08:24.250Z,128.00
2019-02-07T16:09:24.445Z,120.00
2019-02-07T16:10:24.476Z,104.00
2019-02-07T16:11:24.471Z,96.00
2019-02-07T16:12:24.989Z,92.00
2019-02-07T16:14:24.187Z,80.00
2019-02-07T16:15:24.245Z,72.00
2019-02-07T16:18:24.137Z,44.00
2019-02-07T16:21:24.348Z,48.00
2019-02-07T16:25:24.267Z,36.00
2019-02-07T16:29:24.338Z,24.00
2019-02-07T16:31:24.295Z,24.00
2019-02-07T16:32:24.004Z,24.00
2019-02-07T16:38:23.960Z,16.00
2019-02-07T16:41:23.892Z,176.00
2019-02-07T16:42:24.110Z,248.00
2019-02-07T16:43:23.861Z,260.00
2019-02-07T16:45:23.846Z,8.00
2019-02-07T16:48:23.810Z,4.00
